createdAt,value
2023-01-03T00:01:16.625Z,9.00
2023-01-03T00:03:43.669Z,9.00
2023-01-03T00:06:18.768Z,9.10
2023-01-03T00:08:45.905Z,9.00
2023-01-03T00:11:40.661Z,9.00
2023-01-03T00:14:08.907Z,9.00
2023-01-03T00:16:35.982Z,9.00
2023-01-03T00:19:11.368Z,8.90
2023-01-03T00:21:39.198Z,8.90
2023-01-03T00:24:06.701Z,9.00
2023-01-03T00:26:34.188Z,9.00
2023-01-03T00:29:01.440Z,8.80
2023-01-03T00:31:28.389Z,8.90
2023-01-03T00:33:55.340Z,8.80
2023-01-03T00:36:22.352Z,8.90
2023-01-03T00:38:49.231Z,8.80
2023-01-03T00:41:18.495Z,9.00
2023-01-03T00:43:47.229Z,8.90
2023-01-03T00:46:15.894Z,9.00
2023-01-03T00:48:42.985Z,9.00
2023-01-03T00:51:19.093Z,8.90
2023-01-03T00:53:47.467Z,8.90
2023-01-03T00:56:17.132Z,9.10
2023-01-03T00:58:44.448Z,8.90
2023-01-03T01:01:22.838Z,8.90
2023-01-03T01:03:53.286Z,8.80
2023-01-03T01:06:29.290Z,8.80
2023-01-03T01:08:58.560Z,8.70
2023-01-03T01:11:26.882Z,8.90
2023-01-03T01:13:54.397Z,8.70
2023-01-03T01:16:27.048Z,8.70
2023-01-03T01:18:54.678Z,8.60
2023-01-03T01:21:27.665Z,8.70
2023-01-03T01:23:54.911Z,8.70
2023-01-03T01:26:23.576Z,8.60
2023-01-03T01:28:51.871Z,8.70
2023-01-03T01:31:24.235Z,8.50
2023-01-03T01:33:52.547Z,8.60
2023-01-03T01:36:29.082Z,8.50
2023-01-03T01:39:01.339Z,8.50
2023-01-03T01:41:49.105Z,8.40
2023-01-03T01:44:40.775Z,8.50
2023-01-03T01:47:34.620Z,8.50
2023-01-03T01:50:05.345Z,8.40
2023-01-03T01:52:35.651Z,8.40
2023-01-03T01:55:05.012Z,8.40
2023-01-03T01:57:33.018Z,8.30
2023-01-03T02:00:00.418Z,8.30
2023-01-03T02:02:27.847Z,8.40
2023-01-03T02:04:57.281Z,8.30
2023-01-03T02:07:24.585Z,8.40
2023-01-03T02:09:56.045Z,8.40
2023-01-03T02:12:56.936Z,8.50
2023-01-03T02:15:42.097Z,8.40
2023-01-03T02:18:33.208Z,8.40
2023-01-03T02:21:20.959Z,8.30
2023-01-03T02:24:23.490Z,8.30
2023-01-03T02:27:08.417Z,8.30
2023-01-03T02:30:12.275Z,8.30
2023-01-03T02:32:53.190Z,8.30
2023-01-03T02:35:36.822Z,8.40
2023-01-03T02:38:29.715Z,8.30
2023-01-03T02:41:11.277Z,8.40
2023-01-03T02:44:02.373Z,8.20
2023-01-03T02:46:50.282Z,8.10
2023-01-03T02:49:32.237Z,8.10
2023-01-03T02:52:04.062Z,8.10
2023-01-03T02:54:40.236Z,8.00
2023-01-03T02:57:30.650Z,8.00
2023-01-03T03:00:08.650Z,8.10
2023-01-03T03:02:37.737Z,8.20
2023-01-03T03:05:10.325Z,8.10
2023-01-03T03:07:40.833Z,8.10
2023-01-03T03:10:28.583Z,8.30
2023-01-03T03:13:16.124Z,8.10
2023-01-03T03:15:51.737Z,8.10
2023-01-03T03:18:41.361Z,8.00
2023-01-03T03:21:29.182Z,8.10
2023-01-03T03:24:30.240Z,8.10
2023-01-03T03:27:00.106Z,8.10
2023-01-03T03:29:28.341Z,8.00
2023-01-03T03:31:56.620Z,8.10
2023-01-03T03:34:29.811Z,8.00
2023-01-03T03:37:02.867Z,8.00
2023-01-03T03:39:50.982Z,8.00
2023-01-03T03:42:55.138Z,8.00
2023-01-03T03:45:34.280Z,8.00
2023-01-03T03:48:25.475Z,8.00
2023-01-03T03:51:06.334Z,8.00
2023-01-03T03:53:36.732Z,7.90
2023-01-03T03:56:08.523Z,7.90
2023-01-03T03:58:44.236Z,7.90
2023-01-03T04:01:17.980Z,7.90
2023-01-03T04:03:47.168Z,7.90
2023-01-03T04:06:22.655Z,7.70
2023-01-03T04:08:50.158Z,7.80
2023-01-03T04:11:17.556Z,7.90
2023-01-03T04:13:44.475Z,7.90
2023-01-03T04:16:11.905Z,7.80
2023-01-03T04:18:38.778Z,7.80
2023-01-03T04:21:05.750Z,7.80
2023-01-03T04:23:32.590Z,7.80
2023-01-03T04:25:59.469Z,7.70
2023-01-03T04:28:26.391Z,7.70
2023-01-03T04:30:53.222Z,7.70
2023-01-03T04:33:20.072Z,7.70
2023-01-03T04:35:46.954Z,7.60
2023-01-03T04:38:13.855Z,7.60
2023-01-03T04:40:40.688Z,7.60
2023-01-03T04:43:26.005Z,7.50
2023-01-03T04:45:52.883Z,7.60
2023-01-03T04:48:19.897Z,7.70
2023-01-03T04:50:54.627Z,7.50
2023-01-03T04:53:23.037Z,7.50
2023-01-03T04:55:51.969Z,7.50
2023-01-03T04:58:19.947Z,7.40
2023-01-03T05:00:47.064Z,7.40
2023-01-03T05:03:16.037Z,7.40
2023-01-03T05:05:43.319Z,7.40
2023-01-03T05:08:11.981Z,7.40
2023-01-03T05:10:39.460Z,7.40
2023-01-03T05:13:06.494Z,7.40
2023-01-03T05:15:38.694Z,7.60
2023-01-03T05:18:06.101Z,7.50
2023-01-03T05:20:54.628Z,7.50
2023-01-03T05:23:40.387Z,7.50
2023-01-03T05:26:12.079Z,7.70
2023-01-03T05:28:39.864Z,7.60
2023-01-03T05:31:06.758Z,7.60
2023-01-03T05:33:33.697Z,7.40
2023-01-03T05:36:00.529Z,7.30
2023-01-03T05:38:27.437Z,7.50
2023-01-03T05:40:54.299Z,7.40
2023-01-03T05:43:21.162Z,7.40
2023-01-03T05:45:52.714Z,7.40
2023-01-03T05:48:20.856Z,7.40
2023-01-03T05:50:49.831Z,7.30
2023-01-03T05:53:17.560Z,7.30
2023-01-03T05:55:44.831Z,7.30
2023-01-03T05:58:12.778Z,7.50
2023-01-03T06:00:40.020Z,7.40
2023-01-03T06:03:07.491Z,7.30
2023-01-03T06:05:34.522Z,7.20
2023-01-03T06:08:02.429Z,7.20
2023-01-03T06:10:29.471Z,7.30
2023-01-03T06:12:57.347Z,7.30
2023-01-03T06:15:24.242Z,7.30
2023-01-03T06:18:02.275Z,7.30
2023-01-03T06:20:30.375Z,7.50
2023-01-03T06:22:57.585Z,7.40
2023-01-03T06:25:25.660Z,7.40
2023-01-03T06:27:52.572Z,7.40
2023-01-03T06:30:20.773Z,7.40
2023-01-03T06:32:47.728Z,7.40
2023-01-03T06:35:14.750Z,7.40
2023-01-03T06:37:42.106Z,7.30
2023-01-03T06:40:09.554Z,7.40
2023-01-03T06:42:39.483Z,7.30
2023-01-03T06:45:25.550Z,7.40
2023-01-03T06:48:10.907Z,7.30
2023-01-03T06:51:00.423Z,7.40
2023-01-03T06:53:34.709Z,7.40
2023-01-03T06:56:02.168Z,7.40
2023-01-03T06:58:29.652Z,7.30
2023-01-03T07:00:59.017Z,7.40
2023-01-03T07:03:26.074Z,7.40
2023-01-03T07:05:53.037Z,7.40
2023-01-03T07:08:20.111Z,7.40
2023-01-03T07:10:47.302Z,7.50
2023-01-03T07:13:33.331Z,7.50
2023-01-03T07:16:00.354Z,7.60
2023-01-03T07:18:27.367Z,7.30
2023-01-03T07:20:54.436Z,7.40
2023-01-03T07:23:21.520Z,7.50
2023-01-03T07:25:48.481Z,7.30
2023-01-03T07:28:16.645Z,7.40
2023-01-03T07:30:45.942Z,7.30
2023-01-03T07:33:15.463Z,7.30
2023-01-03T07:35:42.765Z,7.20
2023-01-03T07:38:11.595Z,7.30
2023-01-03T07:40:39.227Z,7.20
2023-01-03T07:43:24.626Z,7.40
2023-01-03T07:45:51.549Z,7.20
2023-01-03T07:48:18.469Z,7.20
2023-01-03T07:50:45.452Z,7.10
2023-01-03T07:53:17.145Z,7.10
2023-01-03T07:55:45.534Z,7.20
2023-01-03T07:58:13.181Z,7.00
2023-01-03T08:00:41.841Z,7.10
2023-01-03T08:03:11.334Z,7.20
2023-01-03T08:05:38.732Z,7.20
2023-01-03T08:08:06.154Z,7.20
2023-01-03T08:10:51.848Z,7.20
2023-01-03T08:13:19.191Z,7.20
2023-01-03T08:15:51.948Z,7.20
2023-01-03T08:18:26.798Z,7.20
2023-01-03T08:20:55.756Z,7.20
2023-01-03T08:23:26.129Z,7.30
2023-01-03T08:26:00.400Z,7.20
2023-01-03T08:28:27.370Z,7.30
2023-01-03T08:30:54.311Z,7.00
2023-01-03T08:33:21.466Z,7.10
2023-01-03T08:35:52.903Z,7.10
2023-01-03T08:38:28.953Z,7.20
2023-01-03T08:40:56.914Z,7.40
2023-01-03T08:43:24.494Z,7.30
2023-01-03T08:45:51.393Z,7.40
2023-01-03T08:48:20.305Z,7.20
2023-01-03T08:50:47.610Z,7.20
2023-01-03T08:53:14.448Z,7.20
2023-01-03T08:55:41.385Z,7.20
2023-01-03T08:58:09.709Z,7.30
2023-01-03T09:00:37.486Z,7.30
2023-01-03T09:03:04.613Z,7.20
2023-01-03T09:05:31.736Z,7.20
2023-01-03T09:07:58.691Z,7.30
2023-01-03T09:10:26.204Z,7.30
2023-01-03T09:12:53.379Z,7.20
2023-01-03T09:15:20.282Z,7.30
2023-01-03T09:17:49.318Z,7.40
2023-01-03T09:20:18.464Z,7.50
2023-01-03T09:22:45.799Z,7.30
2023-01-03T09:25:12.676Z,7.30
2023-01-03T09:27:39.637Z,7.20
2023-01-03T09:30:06.929Z,7.30
2023-01-03T09:32:33.790Z,7.30
2023-01-03T09:35:00.747Z,7.40
2023-01-03T09:37:27.612Z,7.30
2023-01-03T09:39:54.456Z,7.30
2023-01-03T09:42:43.506Z,7.30
2023-01-03T09:45:15.933Z,7.20
2023-01-03T09:47:44.167Z,7.50
2023-01-03T09:50:39.468Z,7.30
2023-01-03T09:53:37.531Z,7.40
2023-01-03T09:56:23.095Z,7.40
2023-01-03T09:59:18.618Z,7.40
2023-01-03T10:02:23.003Z,7.40
2023-01-03T10:05:21.454Z,7.40
2023-01-03T10:08:09.240Z,7.40
2023-01-03T10:11:05.324Z,7.40
2023-01-03T10:13:41.250Z,7.50
2023-01-03T10:16:38.175Z,7.50
2023-01-03T10:19:32.868Z,7.50
2023-01-03T10:22:24.241Z,7.50
2023-01-03T10:25:01.262Z,7.50
2023-01-03T10:27:31.650Z,7.50
2023-01-03T10:30:02.621Z,7.60
2023-01-03T10:32:38.572Z,7.90
2023-01-03T10:35:17.260Z,7.90
2023-01-03T10:37:45.227Z,7.90
2023-01-03T10:40:13.497Z,7.70
2023-01-03T10:42:42.177Z,7.90
2023-01-03T10:45:19.232Z,7.80
2023-01-03T10:48:01.035Z,7.90
2023-01-03T10:50:29.481Z,7.90
2023-01-03T10:53:05.484Z,7.70
2023-01-03T10:55:34.963Z,7.60
2023-01-03T10:58:04.066Z,7.60
2023-01-03T11:00:33.547Z,7.70
2023-01-03T11:03:20.000Z,7.70
2023-01-03T11:05:57.512Z,7.90
2023-01-03T11:08:39.743Z,7.80
2023-01-03T11:11:30.444Z,7.90
2023-01-03T11:14:09.424Z,7.80
2023-01-03T11:16:36.463Z,7.90
2023-01-03T11:19:06.064Z,7.70
2023-01-03T11:21:43.727Z,7.80
2023-01-03T11:24:48.195Z,8.10
2023-01-03T11:27:40.258Z,8.10
2023-01-03T11:30:22.376Z,8.30
2023-01-03T11:33:12.252Z,8.20
2023-01-03T11:36:17.284Z,8.20
2023-01-03T11:38:55.906Z,8.20
2023-01-03T11:41:41.718Z,8.00
2023-01-03T11:44:26.295Z,7.80
2023-01-03T11:47:30.973Z,8.00
2023-01-03T11:50:12.950Z,7.90
2023-01-03T11:52:52.560Z,7.90
2023-01-03T11:55:25.105Z,7.90
2023-01-03T11:58:10.796Z,7.70
2023-01-03T12:01:14.109Z,7.70
2023-01-03T12:04:08.789Z,7.70
2023-01-03T12:06:49.130Z,7.60
2023-01-03T12:09:27.692Z,7.60
2023-01-03T12:11:54.497Z,7.50
2023-01-03T12:14:45.328Z,7.50
2023-01-03T12:17:33.748Z,7.40
2023-01-03T12:20:37.199Z,7.40
2023-01-03T12:23:23.335Z,7.40
2023-01-03T12:25:57.111Z,7.40
2023-01-03T12:28:33.350Z,7.20
2023-01-03T12:31:18.907Z,7.30
2023-01-03T12:34:13.992Z,7.40
2023-01-03T12:37:04.457Z,7.40
2023-01-03T12:40:13.193Z,7.50
2023-01-03T12:42:55.904Z,7.40
2023-01-03T12:45:35.166Z,7.50
2023-01-03T12:48:07.449Z,7.70
2023-01-03T12:50:48.765Z,7.60
2023-01-03T12:53:46.993Z,7.60
2023-01-03T12:56:45.132Z,7.60
2023-01-03T12:59:39.266Z,7.60
2023-01-03T13:02:34.553Z,7.60
2023-01-03T13:05:16.767Z,7.50
2023-01-03T13:07:50.381Z,7.50
2023-01-03T13:10:21.227Z,7.60
2023-01-03T13:12:53.197Z,7.50
2023-01-03T13:15:37.649Z,7.50
2023-01-03T13:18:23.039Z,7.50
2023-01-03T13:20:54.178Z,7.40
2023-01-03T13:23:36.624Z,7.50
2023-01-03T13:26:06.246Z,7.60
2023-01-03T13:28:37.780Z,7.70
2023-01-03T13:31:19.461Z,7.90
2023-01-03T13:33:52.129Z,7.80
2023-01-03T13:36:19.561Z,7.80
2023-01-03T13:38:46.928Z,7.70
2023-01-03T13:41:36.375Z,7.70
2023-01-03T13:44:19.729Z,7.70
2023-01-03T13:46:47.957Z,7.70
2023-01-03T13:49:20.473Z,7.60
2023-01-03T13:51:50.769Z,7.70
2023-01-03T13:54:17.613Z,7.80
2023-01-03T13:56:44.427Z,7.90
2023-01-03T13:59:14.338Z,7.60
2023-01-03T14:01:59.515Z,7.70
2023-01-03T14:04:46.742Z,7.80
2023-01-03T14:07:27.244Z,7.60
2023-01-03T14:10:12.885Z,7.70
2023-01-03T14:13:17.496Z,7.60
2023-01-03T14:15:46.237Z,7.60
2023-01-03T14:18:26.465Z,7.60
2023-01-03T14:20:57.101Z,7.50
2023-01-03T14:26:16.759Z,7.50
2023-01-03T14:28:49.284Z,7.60
2023-01-03T14:31:25.394Z,7.80
2023-01-03T14:33:57.701Z,7.90
2023-01-03T14:36:24.877Z,7.80
2023-01-03T14:38:56.213Z,7.70
2023-01-03T14:41:26.268Z,7.70
2023-01-03T14:44:04.181Z,7.60
2023-01-03T14:46:32.353Z,7.70
2023-01-03T14:49:03.777Z,7.70
2023-01-03T14:51:34.415Z,7.90
2023-01-03T14:54:02.418Z,7.90
2023-01-03T14:56:30.479Z,7.80
2023-01-03T14:58:58.834Z,7.70
2023-01-03T15:01:27.104Z,7.50
2023-01-03T15:03:55.582Z,7.60
2023-01-03T15:06:28.118Z,7.50
2023-01-03T15:09:00.478Z,7.50
2023-01-03T15:11:35.056Z,7.50
2023-01-03T15:14:06.872Z,7.30
2023-01-03T15:16:39.908Z,7.30
2023-01-03T15:19:20.290Z,7.20
2023-01-03T15:21:47.529Z,7.20
2023-01-03T15:24:17.855Z,7.20
2023-01-03T15:26:50.484Z,7.20
2023-01-03T15:29:23.209Z,7.00
2023-01-03T15:32:01.085Z,7.00
2023-01-03T15:34:33.833Z,7.00
2023-01-03T15:37:20.194Z,7.00
2023-01-03T15:39:49.957Z,6.90
2023-01-03T15:42:47.802Z,6.80
2023-01-03T15:45:22.824Z,6.70
2023-01-03T15:47:53.111Z,6.80
2023-01-03T15:50:20.357Z,6.80
2023-01-03T15:52:48.689Z,6.80
2023-01-03T15:55:17.187Z,6.70
2023-01-03T15:57:50.229Z,6.70
2023-01-03T16:00:21.397Z,6.70
2023-01-03T16:02:49.393Z,6.50
2023-01-03T16:05:21.927Z,6.70
2023-01-03T16:07:49.344Z,6.50
2023-01-03T16:10:16.316Z,6.50
2023-01-03T16:12:43.811Z,6.50
2023-01-03T16:15:20.292Z,6.40
2023-01-03T16:17:49.324Z,6.40
2023-01-03T16:20:17.959Z,6.50
2023-01-03T16:22:59.815Z,6.30
2023-01-03T16:25:27.625Z,6.50
2023-01-03T16:27:54.762Z,6.20
2023-01-03T16:30:21.851Z,6.10
2023-01-03T16:32:49.655Z,6.20
2023-01-03T16:35:18.909Z,6.20
2023-01-03T16:37:45.893Z,6.10
2023-01-03T16:40:20.632Z,6.10
2023-01-03T16:42:48.243Z,6.10
2023-01-03T16:45:16.285Z,6.10
2023-01-03T16:47:43.869Z,6.00
2023-01-03T16:50:18.384Z,5.90
2023-01-03T16:52:54.883Z,5.90
2023-01-03T16:55:27.936Z,5.80
2023-01-03T16:57:55.846Z,5.80
2023-01-03T17:00:31.285Z,6.00
2023-01-03T17:03:02.788Z,5.80
2023-01-03T17:05:35.321Z,5.80
2023-01-03T17:08:23.605Z,5.70
2023-01-03T17:10:52.934Z,5.70
2023-01-03T17:13:23.951Z,5.70
2023-01-03T17:15:50.842Z,5.70
2023-01-03T17:18:20.500Z,5.70
2023-01-03T17:20:52.623Z,5.70
2023-01-03T17:23:19.953Z,5.60
2023-01-03T17:25:46.883Z,5.80
2023-01-03T17:28:13.858Z,5.70
2023-01-03T17:30:40.688Z,5.60
2023-01-03T17:33:07.528Z,5.60
2023-01-03T17:35:36.210Z,5.60
2023-01-03T17:40:52.785Z,5.70
2023-01-03T17:43:22.416Z,5.50
2023-01-03T17:46:14.880Z,5.50
2023-01-03T17:49:03.005Z,5.40
2023-01-03T17:51:30.139Z,5.40
2023-01-03T17:53:57.761Z,5.40
2023-01-03T17:56:25.037Z,5.40
2023-01-03T17:58:56.338Z,5.30
2023-01-03T18:01:23.750Z,5.40
2023-01-03T18:03:50.838Z,5.30
2023-01-03T18:06:23.577Z,5.30
2023-01-03T18:08:52.383Z,5.30
2023-01-03T18:11:22.141Z,5.40
2023-01-03T18:13:49.661Z,5.20
2023-01-03T18:16:22.587Z,5.40
2023-01-03T18:18:49.711Z,5.20
2023-01-03T18:21:18.818Z,5.10
2023-01-03T18:23:46.400Z,5.10
2023-01-03T18:26:16.270Z,5.10
2023-01-03T18:28:43.579Z,5.10
2023-01-03T18:31:19.548Z,5.10
2023-01-03T18:33:46.633Z,5.10
2023-01-03T18:36:26.559Z,5.10
2023-01-03T18:39:08.414Z,5.10
2023-01-03T18:41:35.253Z,5.10
2023-01-03T18:44:02.160Z,5.20
2023-01-03T18:46:29.817Z,5.10
2023-01-03T18:48:56.821Z,5.00
2023-01-03T18:51:27.260Z,5.00
2023-01-03T18:53:57.466Z,5.00
2023-01-03T18:56:34.957Z,5.10
2023-01-03T18:59:12.416Z,5.10
2023-01-03T19:01:39.764Z,5.10
2023-01-03T19:04:06.954Z,5.20
2023-01-03T19:06:34.276Z,5.10
2023-01-03T19:09:04.328Z,5.30
2023-01-03T19:11:34.684Z,5.10
2023-01-03T19:14:03.217Z,5.20
2023-01-03T19:16:33.039Z,5.00
2023-01-03T19:19:00.488Z,5.10
2023-01-03T19:21:36.238Z,5.10
2023-01-03T19:24:11.800Z,5.20
2023-01-03T19:26:43.925Z,5.10
2023-01-03T19:29:21.223Z,5.10
2023-01-03T19:31:50.202Z,5.10
2023-01-03T19:34:20.015Z,5.10
2023-01-03T19:36:47.427Z,5.10
2023-01-03T19:39:15.455Z,5.10
2023-01-03T19:42:13.439Z,5.20
2023-01-03T19:44:41.046Z,5.10
2023-01-03T19:47:13.481Z,5.20
2023-01-03T19:49:40.885Z,5.00
2023-01-03T19:52:07.818Z,4.90
2023-01-03T19:54:34.689Z,4.90
2023-01-03T19:57:04.770Z,5.00
2023-01-03T19:59:34.799Z,4.90
2023-01-03T20:04:50.628Z,4.90
2023-01-03T20:07:17.749Z,4.90
2023-01-03T20:09:44.604Z,4.90
2023-01-03T20:12:15.450Z,4.90
2023-01-03T20:14:49.393Z,4.80
2023-01-03T20:17:24.831Z,4.90
2023-01-03T20:19:52.588Z,4.90
2023-01-03T20:23:02.427Z,4.80
2023-01-03T20:25:31.992Z,4.90
2023-01-03T20:28:00.672Z,5.00
2023-01-03T20:30:29.944Z,5.10
2023-01-03T20:32:57.163Z,5.00
2023-01-03T20:36:08.474Z,5.10
2023-01-03T20:38:13.260Z,4.80
2023-01-03T20:40:40.100Z,4.70
2023-01-03T20:43:13.693Z,4.70
2023-01-03T20:45:40.817Z,4.70
2023-01-03T20:48:24.748Z,4.60
2023-01-03T20:50:52.761Z,4.60
2023-01-03T20:53:22.825Z,4.60
2023-01-03T20:55:51.053Z,4.60
2023-01-03T20:58:20.934Z,4.60
2023-01-03T21:00:48.166Z,4.60
2023-01-03T21:03:15.269Z,4.60
2023-01-03T21:05:42.294Z,4.60
2023-01-03T21:08:34.089Z,4.60
2023-01-03T21:11:01.402Z,4.60
2023-01-03T21:13:29.123Z,4.70
2023-01-03T21:15:56.081Z,4.50
2023-01-03T21:18:23.072Z,4.50
2023-01-03T21:20:49.966Z,4.50
2023-01-03T21:23:18.875Z,4.40
2023-01-03T21:25:46.455Z,4.50
2023-01-03T21:28:13.682Z,4.40
2023-01-03T21:30:41.233Z,4.30
2023-01-03T21:33:16.873Z,4.60
2023-01-03T21:35:44.418Z,4.50
2023-01-03T21:38:11.379Z,4.40
2023-01-03T21:40:38.485Z,4.40
2023-01-03T21:43:05.947Z,4.30
2023-01-03T21:45:38.313Z,4.40
2023-01-03T21:48:08.172Z,4.30
2023-01-03T21:50:39.009Z,4.10
2023-01-03T21:53:06.756Z,4.10
2023-01-03T21:55:33.884Z,4.00
2023-01-03T21:58:01.333Z,4.00
2023-01-03T22:00:28.211Z,4.10
2023-01-03T22:03:13.571Z,4.10
2023-01-03T22:05:40.490Z,4.10
2023-01-03T22:08:07.333Z,4.10
2023-01-03T22:10:34.721Z,4.10
2023-01-03T22:13:03.661Z,4.10
2023-01-03T22:15:30.550Z,4.10
2023-01-03T22:17:57.691Z,4.20
2023-01-03T22:20:26.397Z,4.20
2023-01-03T22:22:53.494Z,4.20
2023-01-03T22:25:23.254Z,4.10
2023-01-03T22:27:53.333Z,4.10
2023-01-03T22:30:20.983Z,4.00
2023-01-03T22:32:48.099Z,4.10
2023-01-03T22:35:16.722Z,4.10
2023-01-03T22:37:43.625Z,4.10
2023-01-03T22:40:17.531Z,4.20
2023-01-03T22:42:44.471Z,4.10
2023-01-03T22:45:12.142Z,4.10
2023-01-03T22:47:39.225Z,4.20
2023-01-03T22:50:08.377Z,4.10
2023-01-03T22:52:36.825Z,4.10
2023-01-03T22:55:03.903Z,4.10
2023-01-03T22:57:30.755Z,4.10
2023-01-03T22:59:57.571Z,4.10
2023-01-03T23:02:28.775Z,4.10
2023-01-03T23:04:56.078Z,4.00
2023-01-03T23:07:22.964Z,4.00
2023-01-03T23:09:49.806Z,4.00
2023-01-03T23:12:35.201Z,4.00
2023-01-03T23:15:02.735Z,4.00
2023-01-03T23:17:48.062Z,4.20
2023-01-03T23:20:15.018Z,4.00
2023-01-03T23:22:43.692Z,4.00
2023-01-03T23:25:10.611Z,3.90
2023-01-03T23:27:37.399Z,4.00
2023-01-03T23:30:04.929Z,4.10
2023-01-03T23:32:32.728Z,4.00
2023-01-03T23:34:59.548Z,4.00
2023-01-03T23:37:27.371Z,4.00
2023-01-03T23:39:54.204Z,4.00
2023-01-03T23:42:21.075Z,4.10
2023-01-03T23:44:47.883Z,4.10
2023-01-03T23:47:14.750Z,4.10
2023-01-03T23:49:41.616Z,4.50
2023-01-03T23:52:08.797Z,4.80
2023-01-03T23:54:35.646Z,4.90
2023-01-03T23:57:02.524Z,4.60
2023-01-03T23:59:29.377Z,4.50
